createdAt,value
2023-01-19T00:01:47.218Z,25.07
2023-01-19T00:04:16.099Z,24.97
2023-01-19T00:06:44.980Z,25.37
2023-01-19T00:09:14.276Z,25.13
2023-01-19T00:11:43.164Z,28.17
2023-01-19T00:14:12.500Z,27.13
2023-01-19T00:16:42.427Z,27.90
2023-01-19T00:19:13.113Z,31.37
2023-01-19T00:21:41.971Z,34.50
2023-01-19T00:24:14.492Z,33.03
2023-01-19T00:26:43.543Z,32.57
2023-01-19T00:29:12.775Z,33.70
2023-01-19T00:31:42.165Z,33.27
2023-01-19T00:34:12.582Z,35.57
2023-01-19T00:36:41.480Z,32.23
2023-01-19T00:39:10.652Z,32.20
2023-01-19T00:41:57.028Z,30.43
2023-01-19T00:44:26.474Z,30.30
2023-01-19T00:46:55.465Z,29.73
2023-01-19T00:49:25.832Z,32.93
2023-01-19T00:51:54.844Z,28.07
2023-01-19T00:54:26.922Z,28.90
2023-01-19T00:56:56.757Z,28.23
2023-01-19T00:59:27.158Z,28.60
2023-01-19T01:01:56.231Z,28.97
2023-01-19T01:04:26.218Z,28.43
2023-01-19T01:06:55.117Z,29.27
2023-01-19T01:09:24.479Z,27.43
2023-01-19T01:11:53.257Z,28.23
2023-01-19T01:14:22.391Z,26.80
2023-01-19T01:16:51.821Z,27.50
2023-01-19T01:19:20.721Z,29.80
2023-01-19T01:21:51.562Z,29.23
2023-01-19T01:24:21.056Z,28.63
2023-01-19T01:26:50.170Z,31.57
2023-01-19T01:29:19.100Z,29.27
2023-01-19T01:31:48.178Z,30.23
2023-01-19T01:34:17.150Z,31.13
2023-01-19T01:36:46.249Z,32.17
2023-01-19T01:39:16.512Z,29.30
2023-01-19T01:41:45.560Z,30.53
2023-01-19T01:44:50.268Z,30.53
2023-01-19T01:47:25.439Z,31.20
2023-01-19T01:49:57.751Z,30.37
2023-01-19T01:52:29.193Z,29.43
2023-01-19T01:55:00.462Z,30.07
2023-01-19T01:57:29.694Z,27.13
2023-01-19T01:59:59.206Z,17.93
2023-01-19T02:02:47.997Z,15.97
2023-01-19T02:05:20.149Z,12.63
2023-01-19T02:08:10.345Z,11.30
2023-01-19T02:10:58.904Z,12.47
2023-01-19T02:13:28.651Z,11.00
2023-01-19T02:16:00.101Z,10.33
2023-01-19T02:18:31.258Z,10.50
2023-01-19T02:21:09.014Z,9.40
2023-01-19T02:23:45.347Z,10.20
2023-01-19T02:26:17.226Z,8.67
2023-01-19T02:28:51.276Z,8.77
2023-01-19T02:31:20.444Z,7.77
2023-01-19T02:33:49.520Z,7.47
2023-01-19T02:36:22.601Z,6.93
2023-01-19T02:38:56.432Z,6.77
2023-01-19T02:41:31.286Z,6.63
2023-01-19T02:44:00.730Z,6.87
2023-01-19T02:46:29.794Z,6.00
2023-01-19T02:49:00.912Z,5.83
2023-01-19T02:51:30.244Z,5.97
2023-01-19T02:54:17.375Z,6.77
2023-01-19T02:57:13.721Z,6.00
2023-01-19T02:59:54.219Z,6.13
2023-01-19T03:02:34.852Z,5.33
2023-01-19T03:05:14.206Z,5.17
2023-01-19T03:07:52.839Z,5.00
2023-01-19T03:10:32.968Z,5.13
2023-01-19T03:13:10.722Z,4.47
2023-01-19T03:15:46.994Z,4.50
2023-01-19T03:18:19.843Z,4.00
2023-01-19T03:20:49.662Z,4.67
2023-01-19T03:23:19.839Z,4.33
2023-01-19T03:25:52.307Z,4.07
2023-01-19T03:28:24.270Z,4.83
2023-01-19T03:30:58.249Z,4.43
2023-01-19T03:33:30.937Z,3.77
2023-01-19T03:36:04.063Z,3.87
2023-01-19T03:38:36.960Z,3.70
2023-01-19T03:41:13.332Z,3.60
2023-01-19T03:43:42.843Z,4.40
2023-01-19T03:46:12.151Z,3.10
2023-01-19T03:48:42.327Z,4.10
2023-01-19T03:51:13.611Z,4.77
2023-01-19T03:53:42.575Z,4.43
2023-01-19T03:56:19.578Z,5.03
2023-01-19T03:58:48.933Z,4.67
2023-01-19T04:01:18.843Z,5.13
2023-01-19T04:03:47.731Z,5.10
2023-01-19T04:06:16.839Z,5.07
2023-01-19T04:08:45.770Z,5.20
2023-01-19T04:11:15.856Z,5.47
2023-01-19T04:13:45.564Z,5.33
2023-01-19T04:16:14.996Z,5.83
2023-01-19T04:18:44.462Z,6.70
2023-01-19T04:21:13.253Z,6.00
2023-01-19T04:23:42.292Z,7.53
2023-01-19T04:26:11.409Z,6.60
2023-01-19T04:28:41.805Z,7.30
2023-01-19T04:31:10.784Z,8.37
2023-01-19T04:33:40.249Z,8.07
2023-01-19T04:36:09.450Z,8.80
2023-01-19T04:38:38.632Z,8.73
2023-01-19T04:41:07.493Z,8.80
2023-01-19T04:43:36.555Z,9.40
2023-01-19T04:46:06.933Z,8.70
2023-01-19T04:48:35.866Z,9.47
2023-01-19T04:51:04.599Z,9.37
2023-01-19T04:53:33.513Z,9.30
2023-01-19T04:56:02.285Z,8.93
2023-01-19T04:58:31.693Z,9.57
2023-01-19T05:01:00.829Z,9.40
2023-01-19T05:03:31.015Z,8.57
2023-01-19T05:06:00.217Z,9.77
2023-01-19T05:08:29.211Z,9.47
2023-01-19T05:10:59.816Z,10.10
2023-01-19T05:13:28.854Z,8.43
2023-01-19T05:15:58.454Z,9.50
2023-01-19T05:18:27.187Z,11.07
2023-01-19T05:20:57.743Z,9.07
2023-01-19T05:23:26.539Z,10.93
2023-01-19T05:25:56.952Z,11.13
2023-01-19T05:28:25.997Z,9.70
2023-01-19T05:30:55.672Z,9.57
2023-01-19T05:33:24.917Z,9.70
2023-01-19T05:35:54.518Z,10.47
2023-01-19T05:38:34.478Z,8.37
2023-01-19T05:41:04.818Z,10.27
2023-01-19T05:43:33.911Z,9.13
2023-01-19T05:46:04.238Z,9.90
2023-01-19T05:48:33.363Z,9.23
2023-01-19T05:51:03.006Z,9.00
2023-01-19T05:53:33.740Z,9.37
2023-01-19T05:56:03.493Z,8.67
2023-01-19T05:58:32.577Z,9.87
2023-01-19T06:01:06.031Z,9.43
2023-01-19T06:03:36.409Z,8.80
2023-01-19T06:06:06.230Z,9.30
2023-01-19T06:08:36.454Z,9.03
2023-01-19T06:11:08.208Z,8.40
2023-01-19T06:13:37.264Z,8.87
2023-01-19T06:16:06.243Z,9.00
2023-01-19T06:18:35.276Z,9.10
2023-01-19T06:21:09.674Z,8.27
2023-01-19T06:23:40.028Z,8.53
2023-01-19T06:26:09.530Z,7.53
2023-01-19T06:28:38.774Z,8.00
2023-01-19T06:31:08.062Z,8.47
2023-01-19T06:33:36.934Z,7.10
2023-01-19T06:36:07.003Z,7.53
2023-01-19T06:38:35.847Z,7.30
2023-01-19T06:41:06.380Z,7.60
2023-01-19T06:43:35.571Z,7.17
2023-01-19T06:46:05.135Z,6.50
2023-01-19T06:48:34.242Z,6.47
2023-01-19T06:51:03.313Z,6.43
2023-01-19T06:53:32.117Z,6.73
2023-01-19T06:56:01.740Z,6.57
2023-01-19T06:58:32.716Z,6.17
2023-01-19T07:01:04.072Z,5.47
2023-01-19T07:03:33.466Z,5.20
2023-01-19T07:06:03.573Z,5.20
2023-01-19T07:08:32.755Z,5.33
2023-01-19T07:11:25.362Z,5.70
2023-01-19T07:13:56.304Z,4.83
2023-01-19T07:16:25.557Z,4.97
2023-01-19T07:18:54.301Z,6.30
2023-01-19T07:21:23.730Z,5.80
2023-01-19T07:23:52.972Z,5.63
2023-01-19T07:26:22.225Z,5.67
2023-01-19T07:28:52.736Z,6.50
2023-01-19T07:31:21.993Z,5.90
2023-01-19T07:33:50.936Z,6.07
2023-01-19T07:36:19.957Z,6.20
2023-01-19T07:38:48.652Z,6.03
2023-01-19T07:41:17.582Z,6.17
2023-01-19T07:43:46.320Z,6.00
2023-01-19T07:46:17.032Z,6.70
2023-01-19T07:48:47.560Z,6.17
2023-01-19T07:51:19.053Z,6.53
2023-01-19T07:53:48.558Z,6.10
2023-01-19T07:56:17.797Z,5.90
2023-01-19T07:58:47.029Z,5.50
2023-01-19T08:01:17.201Z,5.43
2023-01-19T08:03:47.133Z,5.30
2023-01-19T08:06:21.811Z,5.10
2023-01-19T08:08:50.951Z,5.33
2023-01-19T08:11:19.991Z,4.83
2023-01-19T08:13:49.376Z,5.17
2023-01-19T08:16:19.526Z,5.40
2023-01-19T08:18:48.620Z,4.70
2023-01-19T08:21:17.838Z,5.43
2023-01-19T08:23:47.280Z,5.63
2023-01-19T08:26:21.659Z,4.97
2023-01-19T08:28:50.832Z,5.43
2023-01-19T08:31:24.533Z,4.63
2023-01-19T08:33:53.980Z,5.23
2023-01-19T08:36:25.146Z,5.27
2023-01-19T08:38:54.451Z,5.90
2023-01-19T08:41:23.908Z,5.20
2023-01-19T08:43:52.733Z,6.83
2023-01-19T08:46:23.072Z,5.43
2023-01-19T08:48:52.067Z,5.37
2023-01-19T08:51:21.195Z,5.73
2023-01-19T08:53:50.691Z,5.50
2023-01-19T08:56:20.686Z,5.57
2023-01-19T08:59:03.549Z,5.80
2023-01-19T09:01:38.872Z,4.80
2023-01-19T09:04:08.048Z,5.80
2023-01-19T09:06:36.954Z,4.67
2023-01-19T09:09:06.045Z,4.20
2023-01-19T09:11:35.262Z,4.67
2023-01-19T09:14:05.909Z,4.33
2023-01-19T09:16:35.204Z,4.80
2023-01-19T09:19:05.233Z,5.67
2023-01-19T09:21:34.092Z,5.47
2023-01-19T09:24:03.541Z,5.40
2023-01-19T09:26:33.303Z,5.63
2023-01-19T09:29:02.158Z,6.30
2023-01-19T09:31:31.079Z,5.77
2023-01-19T09:33:59.984Z,6.23
2023-01-19T09:36:30.487Z,7.13
2023-01-19T09:38:59.528Z,5.73
2023-01-19T09:41:28.670Z,6.83
2023-01-19T09:44:01.012Z,6.53
2023-01-19T09:46:36.662Z,7.10
2023-01-19T09:49:12.847Z,6.80
2023-01-19T09:51:46.332Z,6.23
2023-01-19T09:54:17.259Z,6.57
2023-01-19T09:56:48.547Z,6.60
2023-01-19T09:59:25.453Z,5.67
2023-01-19T10:02:20.177Z,4.93
2023-01-19T10:04:59.351Z,5.17
2023-01-19T10:07:42.412Z,4.73
2023-01-19T10:10:31.014Z,4.90
2023-01-19T10:13:20.255Z,4.70
2023-01-19T10:15:57.773Z,4.53
2023-01-19T10:18:33.427Z,4.17
2023-01-19T10:21:07.064Z,4.20
2023-01-19T10:23:43.725Z,4.47
2023-01-19T10:26:17.662Z,4.23
2023-01-19T10:28:49.746Z,4.13
2023-01-19T10:31:22.486Z,5.00
2023-01-19T10:33:51.737Z,4.57
2023-01-19T10:36:22.606Z,5.13
2023-01-19T10:38:52.790Z,4.93
2023-01-19T10:41:27.385Z,4.47
2023-01-19T10:44:04.103Z,5.20
2023-01-19T10:46:39.313Z,4.90
2023-01-19T10:49:08.815Z,4.70
2023-01-19T10:51:49.281Z,4.80
2023-01-19T10:54:20.495Z,4.38
2023-01-19T10:56:55.388Z,4.57
2023-01-19T10:59:34.184Z,4.32
2023-01-19T11:02:22.140Z,4.38
2023-01-19T11:04:53.277Z,4.40
2023-01-19T11:07:24.188Z,4.30
2023-01-19T11:10:14.864Z,4.60
2023-01-19T11:12:45.342Z,4.55
2023-01-19T11:15:22.364Z,4.88
2023-01-19T11:17:52.848Z,4.88
2023-01-19T11:20:24.341Z,4.88
2023-01-19T11:23:06.983Z,4.57
2023-01-19T11:25:38.854Z,5.05
2023-01-19T11:28:07.509Z,5.32
2023-01-19T11:30:37.376Z,5.10
2023-01-19T11:33:07.720Z,5.07
2023-01-19T11:35:39.070Z,4.70
2023-01-19T11:38:20.045Z,5.13
2023-01-19T11:40:56.070Z,4.60
2023-01-19T11:43:39.816Z,5.75
2023-01-19T11:46:17.713Z,5.05
2023-01-19T11:48:53.214Z,5.70
2023-01-19T11:51:22.839Z,6.35
2023-01-19T11:53:54.225Z,5.53
2023-01-19T11:56:28.442Z,5.20
2023-01-19T11:58:57.861Z,5.68
2023-01-19T12:01:31.530Z,5.82
2023-01-19T12:04:05.027Z,5.55
2023-01-19T12:06:37.135Z,5.13
2023-01-19T12:09:24.960Z,5.35
2023-01-19T12:11:59.096Z,5.15
2023-01-19T12:14:36.286Z,4.75
2023-01-19T12:17:10.408Z,4.63
2023-01-19T12:19:46.002Z,5.10
2023-01-19T12:22:17.496Z,5.43
2023-01-19T12:24:52.783Z,5.30
2023-01-19T12:27:33.535Z,5.18
2023-01-19T12:30:04.252Z,5.22
2023-01-19T12:32:38.179Z,4.88
2023-01-19T12:35:08.220Z,5.40
2023-01-19T12:37:40.367Z,5.28
2023-01-19T12:40:27.692Z,4.63
2023-01-19T12:43:02.454Z,4.93
2023-01-19T12:45:34.066Z,4.68
2023-01-19T12:48:03.791Z,5.38
2023-01-19T12:50:36.649Z,4.70
2023-01-19T12:53:08.776Z,4.70
2023-01-19T12:55:39.694Z,4.13
2023-01-19T12:58:18.017Z,3.90
2023-01-19T13:00:48.932Z,4.75
2023-01-19T13:03:47.071Z,5.30
2023-01-19T13:06:16.620Z,4.22
2023-01-19T13:08:58.822Z,4.72
2023-01-19T13:11:32.580Z,4.35
2023-01-19T13:14:35.963Z,4.13
2023-01-19T13:17:26.171Z,3.97
2023-01-19T13:20:20.473Z,4.07
2023-01-19T13:23:19.076Z,3.45
2023-01-19T13:26:05.229Z,3.92
2023-01-19T13:28:43.049Z,3.50
2023-01-19T13:31:13.266Z,3.78
2023-01-19T13:33:51.435Z,3.42
2023-01-19T13:36:31.242Z,5.38
2023-01-19T13:39:02.080Z,4.65
2023-01-19T13:41:34.348Z,4.82
2023-01-19T13:44:06.873Z,4.30
2023-01-19T13:46:38.773Z,4.20
2023-01-19T13:49:18.523Z,3.87
2023-01-19T13:51:49.553Z,4.00
2023-01-19T13:54:19.029Z,4.60
2023-01-19T13:56:51.557Z,3.97
2023-01-19T13:59:21.335Z,4.10
2023-01-19T14:01:51.838Z,4.37
2023-01-19T14:04:33.424Z,3.70
2023-01-19T14:07:05.831Z,4.03
2023-01-19T14:09:34.893Z,4.10
2023-01-19T14:12:15.228Z,4.00
2023-01-19T14:14:44.438Z,4.67
2023-01-19T14:17:24.624Z,4.20
2023-01-19T14:19:56.454Z,3.80
2023-01-19T14:22:40.562Z,4.70
2023-01-19T14:25:32.197Z,3.90
2023-01-19T14:28:29.876Z,4.40
2023-01-19T14:31:00.436Z,4.23
2023-01-19T14:33:37.243Z,4.00
2023-01-19T14:36:28.492Z,4.47
2023-01-19T14:38:59.822Z,4.30
2023-01-19T14:41:34.664Z,4.60
2023-01-19T14:44:06.082Z,4.43
2023-01-19T14:46:35.558Z,4.10
2023-01-19T14:49:06.125Z,4.17
2023-01-19T14:51:37.236Z,4.60
2023-01-19T14:54:06.811Z,4.30
2023-01-19T14:56:37.151Z,5.00
2023-01-19T14:59:13.383Z,4.97
2023-01-19T15:01:42.495Z,4.50
2023-01-19T15:04:11.672Z,4.77
2023-01-19T15:06:46.172Z,4.57
2023-01-19T15:09:15.745Z,4.93
2023-01-19T15:11:46.912Z,3.80
2023-01-19T15:14:17.270Z,5.17
2023-01-19T15:16:46.475Z,4.47
2023-01-19T15:19:17.708Z,4.93
2023-01-19T15:21:47.887Z,4.10
2023-01-19T15:24:18.022Z,5.03
2023-01-19T15:26:47.930Z,5.40
2023-01-19T15:29:22.635Z,4.37
2023-01-19T15:31:51.809Z,5.67
2023-01-19T15:34:20.996Z,5.20
2023-01-19T15:36:51.565Z,6.27
2023-01-19T15:39:20.870Z,5.73
2023-01-19T15:41:49.916Z,6.67
2023-01-19T15:44:18.931Z,6.87
2023-01-19T15:46:47.811Z,6.53
2023-01-19T15:49:16.816Z,7.13
2023-01-19T15:51:46.137Z,5.73
2023-01-19T15:54:16.359Z,5.77
2023-01-19T15:56:45.951Z,6.50
2023-01-19T15:59:14.680Z,6.33
2023-01-19T16:01:44.045Z,6.17
2023-01-19T16:04:13.474Z,6.70
2023-01-19T16:06:42.329Z,5.83
2023-01-19T16:09:18.417Z,5.27
2023-01-19T16:11:59.308Z,4.63
2023-01-19T16:14:28.278Z,5.53
2023-01-19T16:17:00.109Z,5.23
2023-01-19T16:19:29.666Z,5.63
2023-01-19T16:21:59.478Z,5.47
2023-01-19T16:24:28.710Z,5.60
2023-01-19T16:26:59.366Z,6.43
2023-01-19T16:29:29.058Z,6.23
2023-01-19T16:31:57.988Z,5.37
2023-01-19T16:34:27.290Z,5.67
2023-01-19T16:36:56.641Z,6.23
2023-01-19T16:39:26.086Z,5.47
2023-01-19T16:41:55.592Z,6.73
2023-01-19T16:44:26.540Z,6.90
2023-01-19T16:46:55.793Z,7.57
2023-01-19T16:49:28.500Z,8.20
2023-01-19T16:51:59.211Z,10.00
2023-01-19T16:54:30.395Z,8.60
2023-01-19T16:57:00.215Z,8.97
2023-01-19T16:59:30.705Z,8.53
2023-01-19T17:02:00.299Z,8.47
2023-01-19T17:04:30.156Z,9.50
2023-01-19T17:06:59.361Z,9.20
2023-01-19T17:09:28.614Z,10.10
2023-01-19T17:12:00.545Z,11.77
2023-01-19T17:14:31.382Z,13.70
2023-01-19T17:17:03.260Z,15.37
2023-01-19T17:19:32.810Z,19.50
2023-01-19T17:22:01.855Z,21.10
2023-01-19T17:24:30.822Z,18.43
2023-01-19T17:27:00.098Z,20.50
2023-01-19T17:29:31.205Z,17.93
2023-01-19T17:32:00.228Z,18.53
2023-01-19T17:34:29.313Z,18.27
2023-01-19T17:37:03.325Z,19.70
2023-01-19T17:39:33.033Z,21.27
2023-01-19T17:42:02.189Z,19.73
2023-01-19T17:44:32.945Z,19.43
2023-01-19T17:47:02.470Z,19.83
2023-01-19T17:49:31.727Z,18.93
2023-01-19T17:52:01.219Z,18.43
2023-01-19T17:54:30.809Z,19.67
2023-01-19T17:56:59.944Z,20.20
2023-01-19T17:59:29.735Z,21.27
2023-01-19T18:02:00.866Z,20.73
2023-01-19T18:04:32.713Z,24.30
2023-01-19T18:07:01.861Z,20.83
2023-01-19T18:09:31.215Z,21.57
2023-01-19T18:12:00.335Z,22.83
2023-01-19T18:14:29.685Z,22.40
2023-01-19T18:16:58.890Z,24.23
2023-01-19T18:19:29.839Z,20.67
2023-01-19T18:22:01.630Z,19.30
2023-01-19T18:24:31.288Z,19.53
2023-01-19T18:27:00.371Z,20.40
2023-01-19T18:29:29.662Z,19.27
2023-01-19T18:31:58.963Z,19.50
2023-01-19T18:34:29.038Z,18.83
2023-01-19T18:36:58.279Z,19.43
2023-01-19T18:39:27.554Z,18.93
2023-01-19T18:41:56.703Z,16.67
2023-01-19T18:44:26.679Z,16.30
2023-01-19T18:46:57.145Z,14.00
2023-01-19T18:49:26.399Z,16.50
2023-01-19T18:51:57.722Z,15.57
2023-01-19T18:54:27.256Z,16.60
2023-01-19T18:56:56.829Z,17.30
2023-01-19T18:59:26.544Z,16.47
2023-01-19T19:01:55.553Z,17.37
2023-01-19T19:04:25.012Z,16.33
2023-01-19T19:06:54.613Z,16.57
2023-01-19T19:09:27.568Z,20.03
2023-01-19T19:11:57.216Z,21.93
2023-01-19T19:14:27.165Z,24.87
2023-01-19T19:16:56.996Z,25.27
2023-01-19T19:19:26.812Z,26.07
2023-01-19T19:22:25.386Z,26.60
2023-01-19T19:24:58.524Z,30.27
2023-01-19T19:27:28.510Z,31.93
2023-01-19T19:29:58.642Z,33.87
2023-01-19T19:32:29.160Z,35.50
2023-01-19T19:34:59.457Z,33.57
2023-01-19T19:37:29.818Z,34.77
2023-01-19T19:40:00.658Z,32.53
2023-01-19T19:42:31.134Z,35.77
2023-01-19T19:45:03.055Z,34.47
2023-01-19T19:47:32.481Z,34.83
2023-01-19T19:50:01.821Z,38.90
2023-01-19T19:52:32.645Z,34.23
2023-01-19T19:55:03.433Z,33.60
2023-01-19T19:57:32.877Z,31.20
2023-01-19T20:00:02.621Z,38.73
2023-01-19T20:02:38.761Z,66.63
2023-01-19T20:05:08.462Z,51.33
2023-01-19T20:07:39.349Z,46.17
2023-01-19T20:10:12.602Z,38.53
2023-01-19T20:12:42.165Z,34.90
2023-01-19T20:15:12.728Z,30.00
2023-01-19T20:17:42.311Z,30.27
2023-01-19T20:20:13.475Z,29.13
2023-01-19T20:22:43.201Z,28.70
2023-01-19T20:25:14.505Z,23.20
2023-01-19T20:27:45.092Z,20.73
2023-01-19T20:30:15.092Z,23.53
2023-01-19T20:32:44.382Z,22.70
2023-01-19T20:35:13.920Z,22.57
2023-01-19T20:37:43.171Z,23.37
2023-01-19T20:40:14.636Z,25.60
2023-01-19T20:42:44.817Z,24.47
2023-01-19T20:45:14.273Z,25.30
2023-01-19T20:47:43.566Z,21.93
2023-01-19T20:50:13.793Z,22.87
2023-01-19T20:52:43.934Z,23.30
2023-01-19T20:55:14.470Z,24.93
2023-01-19T20:57:43.862Z,26.63
2023-01-19T21:00:14.069Z,25.47
2023-01-19T21:02:43.072Z,25.03
2023-01-19T21:05:13.250Z,23.47
2023-01-19T21:07:42.839Z,26.20
2023-01-19T21:10:12.286Z,30.40
2023-01-19T21:12:43.341Z,25.03
2023-01-19T21:15:13.084Z,25.93
2023-01-19T21:17:44.370Z,27.03
2023-01-19T21:20:15.211Z,29.90
2023-01-19T21:22:46.089Z,29.40
2023-01-19T21:25:15.539Z,30.53
2023-01-19T21:27:46.968Z,32.70
2023-01-19T21:30:16.655Z,30.90
2023-01-19T21:32:45.762Z,31.23
2023-01-19T21:35:16.024Z,33.33
2023-01-19T21:37:44.998Z,35.10
2023-01-19T21:40:14.780Z,35.60
2023-01-19T21:42:45.952Z,35.43
2023-01-19T21:45:15.386Z,37.83
2023-01-19T21:47:44.838Z,38.60
2023-01-19T21:50:14.200Z,36.07
2023-01-19T21:52:44.644Z,36.27
2023-01-19T21:55:14.396Z,34.57
2023-01-19T21:57:45.911Z,32.33
2023-01-19T22:00:15.380Z,33.10
2023-01-19T22:02:49.445Z,33.10
2023-01-19T22:05:27.891Z,35.00
2023-01-19T22:07:57.580Z,33.43
2023-01-19T22:10:27.256Z,33.50
2023-01-19T22:12:58.451Z,35.33
2023-01-19T22:15:28.044Z,36.53
2023-01-19T22:17:57.322Z,37.60
2023-01-19T22:20:26.214Z,36.57
2023-01-19T22:22:55.453Z,39.80
2023-01-19T22:25:28.217Z,39.33
2023-01-19T22:27:59.584Z,37.37
2023-01-19T22:30:29.055Z,39.07
2023-01-19T22:32:58.462Z,36.13
2023-01-19T22:35:28.526Z,44.80
2023-01-19T22:37:57.586Z,44.33
2023-01-19T22:40:26.824Z,44.23
2023-01-19T22:42:56.069Z,44.97
2023-01-19T22:45:26.811Z,47.90
2023-01-19T22:47:56.244Z,42.57
2023-01-19T22:50:25.284Z,45.03
2023-01-19T22:52:58.201Z,43.83
2023-01-19T22:55:27.765Z,43.73
2023-01-19T22:57:57.225Z,45.73
2023-01-19T23:00:27.918Z,46.13
2023-01-19T23:02:57.170Z,40.20
2023-01-19T23:05:26.438Z,43.63
2023-01-19T23:07:55.593Z,46.23
2023-01-19T23:10:24.705Z,50.73
2023-01-19T23:12:53.904Z,53.93
2023-01-19T23:15:22.883Z,51.93
2023-01-19T23:17:54.396Z,48.70
2023-01-19T23:20:23.537Z,44.37
2023-01-19T23:22:52.974Z,45.53
2023-01-19T23:25:22.357Z,39.97
2023-01-19T23:27:51.942Z,39.80
2023-01-19T23:30:21.205Z,40.47
2023-01-19T23:32:51.001Z,39.67
2023-01-19T23:35:21.740Z,40.27
2023-01-19T23:38:06.052Z,42.47
2023-01-19T23:40:34.997Z,41.10
2023-01-19T23:43:03.885Z,39.30
2023-01-19T23:45:33.229Z,38.70
2023-01-19T23:48:04.255Z,39.93
2023-01-19T23:50:34.607Z,42.07
2023-01-19T23:53:03.818Z,41.00
2023-01-19T23:55:33.182Z,42.60
2023-01-19T23:58:02.158Z,43.73
